Time;durP1;ratioP1;P1;durP2;ratioP2;P2;SDS_P1;SDS_P2;PMS_P1;PMS_P2;Temp;Humidity;BMP_temperature;BMP_pressure;BME280_temperature;BME280_humidity;BME280_pressure;Samples;Min_cycle;Max_cycle;Signal;HPM_P1;HPM_P2
2024/02/15 00:01:04;;;;;;;16.87;9.13;;;1.10;99.90;;;;;;4095992;28;20313;-60
2024/02/15 00:03:06;;;;;;;17.70;9.13;;;1.10;99.90;;;;;;4097384;29;20317;-60
2024/02/15 00:05:08;;;;;;;18.50;8.10;;;1.00;99.90;;;;;;4096904;29;20269;-62
2024/02/15 00:07:09;;;;;;;14.60;7.33;;;1.00;99.90;;;;;;4095978;28;21113;-60
2024/02/15 00:09:10;;;;;;;12.13;7.13;;;1.00;99.90;;;;;;4096511;28;20367;-61
2024/02/15 00:11:13;;;;;;;15.20;8.47;;;1.00;99.90;;;;;;4096650;29;20312;-61
2024/02/15 00:13:14;;;;;;;16.53;7.33;;;1.00;99.90;;;;;;4104368;28;20253;-62
2024/02/15 00:15:16;;;;;;;14.57;7.60;;;1.00;99.90;;;;;;4111982;28;20323;-61
2024/02/15 00:17:18;;;;;;;14.43;7.80;;;1.00;99.90;;;;;;4112845;28;20296;-60
2024/02/15 00:19:19;;;;;;;18.00;7.30;;;0.90;99.90;;;;;;4112024;28;20277;-61
2024/02/15 00:21:21;;;;;;;14.00;6.70;;;1.00;99.90;;;;;;4110707;28;20737;-61
2024/02/15 00:23:23;;;;;;;12.90;7.03;;;1.00;99.90;;;;;;4096141;29;20749;-61
2024/02/15 00:25:25;;;;;;;15.53;7.20;;;1.00;99.90;;;;;;4097489;28;20904;-61
2024/02/15 00:27:26;;;;;;;14.93;7.13;;;1.00;99.90;;;;;;4096919;28;20311;-59
2024/02/15 00:29:29;;;;;;;12.87;6.90;;;0.90;99.90;;;;;;4097281;29;20329;-60
2024/02/15 00:31:30;;;;;;;13.17;7.33;;;1.00;99.90;;;;;;4099680;28;20339;-61
2024/02/15 00:33:31;;;;;;;11.93;6.33;;;1.00;99.90;;;;;;4113180;28;20328;-61
2024/02/15 00:35:32;;;;;;;10.87;6.53;;;0.90;99.90;;;;;;4112076;28;20261;-61
2024/02/15 00:37:34;;;;;;;15.13;8.20;;;0.90;99.90;;;;;;4110876;28;20328;-62
2024/02/15 00:39:35;;;;;;;14.80;7.40;;;0.90;99.90;;;;;;4112114;28;20308;-61
2024/02/15 00:41:36;;;;;;;12.00;6.77;;;0.90;99.90;;;;;;4112757;28;20745;-62
2024/02/15 00:43:37;;;;;;;13.70;8.13;;;0.80;99.90;;;;;;4102357;28;20804;-62
2024/02/15 00:45:40;;;;;;;9.40;5.93;;;0.80;99.90;;;;;;4096557;28;20321;-62
2024/02/15 00:47:42;;;;;;;12.33;6.83;;;0.80;99.90;;;;;;4096892;28;20301;-62
2024/02/15 00:49:44;;;;;;;14.97;6.53;;;0.80;99.90;;;;;;4095815;28;20273;-62
2024/02/15 00:51:46;;;;;;;14.20;6.73;;;0.80;99.90;;;;;;4109127;28;20681;-62
2024/02/15 00:53:48;;;;;;;11.03;6.43;;;0.80;99.90;;;;;;4111691;28;20324;-62
2024/02/15 00:55:49;;;;;;;12.70;6.93;;;0.80;99.90;;;;;;4111406;28;20276;-63
2024/02/15 00:57:50;;;;;;;13.17;7.07;;;0.70;99.90;;;;;;4111273;28;20748;-62
2024/02/15 00:59:52;;;;;;;12.07;6.93;;;0.70;99.90;;;;;;4113754;28;20431;-61
2024/02/15 01:01:53;;;;;;;15.10;7.20;;;0.70;99.90;;;;;;4114856;28;20311;-62
2024/02/15 01:03:54;;;;;;;13.77;7.03;;;0.70;99.90;;;;;;4115640;28;20268;-62
2024/02/15 01:05:55;;;;;;;14.63;8.07;;;0.60;99.90;;;;;;4115150;28;20285;-62
2024/02/15 01:07:57;;;;;;;13.37;7.23;;;0.60;99.90;;;;;;4115747;28;20337;-61
2024/02/15 01:09:58;;;;;;;13.20;6.57;;;0.50;99.90;;;;;;4113546;28;20280;-61
2024/02/15 01:11:59;;;;;;;14.67;6.70;;;0.50;99.90;;;;;;4115320;28;20421;-62
2024/02/15 01:14:01;;;;;;;15.67;7.20;;;0.40;99.90;;;;;;4115019;28;20265;-63
2024/02/15 01:16:03;;;;;;;13.53;7.40;;;0.40;99.90;;;;;;4114738;28;20269;-64
2024/02/15 01:18:04;;;;;;;17.23;8.40;;;0.40;99.90;;;;;;4104043;28;20289;-61
2024/02/15 01:20:07;;;;;;;14.53;6.67;;;0.40;99.90;;;;;;4098681;28;20295;-63
2024/02/15 01:22:08;;;;;;;12.90;7.23;;;0.40;99.90;;;;;;4099505;29;20320;-64
2024/02/15 01:24:10;;;;;;;13.23;6.50;;;0.30;99.90;;;;;;4098538;29;20310;-62
2024/02/15 01:26:12;;;;;;;12.90;6.40;;;0.40;99.90;;;;;;4100426;28;20804;-61
2024/02/15 01:28:14;;;;;;;10.93;6.30;;;0.40;99.90;;;;;;4098426;29;20348;-65
2024/02/15 01:30:16;;;;;;;11.67;6.67;;;0.40;99.90;;;;;;4105834;28;20327;-61
2024/02/15 01:32:17;;;;;;;12.73;6.47;;;0.30;99.90;;;;;;4102038;28;20290;-65
2024/02/15 01:34:18;;;;;;;16.17;7.57;;;0.30;99.90;;;;;;4109541;28;20336;-65
2024/02/15 01:36:20;;;;;;;12.17;6.57;;;0.40;99.90;;;;;;4113173;28;20276;-66
2024/02/15 01:38:21;;;;;;;14.87;6.27;;;0.30;99.90;;;;;;4113718;28;20281;-66
2024/02/15 01:40:22;;;;;;;11.10;6.80;;;0.30;99.90;;;;;;4112752;28;20286;-65
2024/02/15 01:42:24;;;;;;;10.17;5.60;;;0.30;99.90;;;;;;4114344;28;20323;-65
2024/02/15 01:44:25;;;;;;;13.50;6.50;;;0.30;99.90;;;;;;4114404;28;20276;-62
2024/02/15 01:46:29;;;;;;;12.07;6.60;;;0.30;99.90;;;;;;4114400;28;20285;-66
2024/02/15 01:48:31;;;;;;;13.83;6.43;;;0.30;99.90;;;;;;4114316;28;20301;-64
2024/02/15 01:50:34;;;;;;;9.83;5.83;;;0.30;99.90;;;;;;4114431;28;20276;-66
2024/02/15 01:52:35;;;;;;;11.00;6.03;;;0.30;99.90;;;;;;4114896;28;20320;-62
2024/02/15 01:54:38;;;;;;;10.63;5.67;;;0.30;99.90;;;;;;4113928;28;20273;-63
2024/02/15 01:56:39;;;;;;;9.47;6.33;;;0.30;99.90;;;;;;4111635;28;20257;-64
2024/02/15 01:58:42;;;;;;;12.37;5.97;;;0.30;99.90;;;;;;4097832;28;20282;-61
2024/02/15 02:00:44;;;;;;;12.13;6.00;;;0.30;99.90;;;;;;4102739;28;21043;-63
2024/02/15 02:02:47;;;;;;;12.23;5.93;;;0.30;99.90;;;;;;4113899;28;20272;-64
2024/02/15 02:04:48;;;;;;;10.10;5.73;;;0.30;99.90;;;;;;4115021;28;20324;-66
2024/02/15 02:06:50;;;;;;;11.10;5.43;;;0.30;99.90;;;;;;4113931;28;20264;-65
2024/02/15 02:08:51;;;;;;;11.13;6.30;;;0.30;99.90;;;;;;4114805;28;20708;-65
2024/02/15 02:10:53;;;;;;;10.27;5.87;;;0.30;99.90;;;;;;4113359;28;20264;-64
2024/02/15 02:12:55;;;;;;;10.67;5.53;;;0.30;99.90;;;;;;4099528;28;20316;-64
2024/02/15 02:14:57;;;;;;;11.07;5.87;;;0.30;99.90;;;;;;4097693;28;20257;-65
2024/02/15 02:17:13;;;;;;;7.87;4.90;;;0.30;99.90;;;;;;4098593;29;20293;-65
2024/02/15 02:19:16;;;;;;;8.90;4.87;;;0.30;99.90;;;;;;4097760;28;20265;-65
2024/02/15 02:21:18;;;;;;;9.63;5.03;;;0.30;99.90;;;;;;4101393;28;20673;-65
2024/02/15 02:23:24;;;;;;;11.37;5.50;;;0.30;99.90;;;;;;4114071;28;20661;-65
2024/02/15 02:25:28;;;;;;;12.10;4.90;;;0.30;99.90;;;;;;4114141;28;20336;-65
2024/02/15 02:27:31;;;;;;;10.37;5.50;;;0.30;99.90;;;;;;4105988;28;20748;-64
2024/02/15 02:29:33;;;;;;;17.57;6.30;;;0.20;99.90;;;;;;4098847;28;20758;-64
2024/02/15 02:31:35;;;;;;;14.77;6.60;;;0.20;99.90;;;;;;4105636;28;20315;-65
2024/02/15 02:33:36;;;;;;;14.27;6.77;;;0.20;99.90;;;;;;4113117;28;20308;-64
2024/02/15 02:35:37;;;;;;;14.03;6.80;;;0.10;99.90;;;;;;4114468;28;20303;-64
2024/02/15 02:37:39;;;;;;;10.27;6.10;;;0.00;99.90;;;;;;4113286;28;20340;-64
2024/02/15 02:39:42;;;;;;;11.67;6.03;;;0.00;99.90;;;;;;4112788;28;20304;-66
2024/02/15 02:41:44;;;;;;;12.77;6.23;;;-0.10;99.90;;;;;;4113305;28;21112;-64
2024/02/15 02:43:45;;;;;;;11.23;6.80;;;-0.10;99.90;;;;;;4114406;28;20261;-63
2024/02/15 02:45:46;;;;;;;13.53;6.90;;;-0.10;99.90;;;;;;4113183;28;20260;-65
2024/02/15 02:47:48;;;;;;;12.90;6.80;;;-0.10;99.90;;;;;;4114417;28;20323;-64
2024/02/15 02:49:50;;;;;;;15.20;7.77;;;-0.10;99.90;;;;;;4113068;28;20926;-66
2024/02/15 02:51:51;;;;;;;14.97;6.47;;;-0.10;99.90;;;;;;4099499;28;20674;-67
2024/02/15 02:53:52;;;;;;;15.80;7.60;;;-0.10;99.90;;;;;;4097128;29;20320;-61
2024/02/15 02:55:56;;;;;;;11.87;6.40;;;-0.20;99.90;;;;;;4097962;29;20325;-60
2024/02/15 02:57:57;;;;;;;11.50;6.70;;;-0.20;99.90;;;;;;4107626;28;20265;-64
2024/02/15 02:59:58;;;;;;;18.57;7.87;;;-0.30;99.90;;;;;;4112001;28;20273;-64
2024/02/15 03:01:59;;;;;;;11.67;6.90;;;-0.30;99.90;;;;;;4113510;28;20752;-65
2024/02/15 03:04:02;;;;;;;12.57;6.97;;;-0.30;99.90;;;;;;4113162;28;20319;-65
2024/02/15 03:06:04;;;;;;;12.47;6.60;;;-0.30;99.90;;;;;;4113869;28;20280;-66
2024/02/15 03:08:06;;;;;;;15.00;6.63;;;-0.30;99.90;;;;;;4112765;28;20327;-65
2024/02/15 03:10:13;;;;;;;9.20;5.87;;;-0.30;99.90;;;;;;4113753;28;20280;-66
2024/02/15 03:12:16;;;;;;;13.80;6.20;;;-0.30;99.90;;;;;;4112565;28;20339;-66
2024/02/15 03:14:17;;;;;;;12.13;6.50;;;-0.30;99.90;;;;;;4107940;28;20274;-65
2024/02/15 03:16:22;;;;;;;12.33;5.83;;;-0.30;99.90;;;;;;4097544;28;20329;-63
2024/02/15 03:18:24;;;;;;;10.50;5.57;;;-0.30;99.90;;;;;;4097892;29;20662;-62
2024/02/15 03:20:25;;;;;;;13.20;6.37;;;-0.30;99.90;;;;;;4096721;29;20331;-61
2024/02/15 03:22:29;;;;;;;13.53;6.30;;;-0.30;99.90;;;;;;4097072;28;20357;-61
2024/02/15 03:24:30;;;;;;;12.23;6.53;;;-0.30;99.90;;;;;;4105881;28;20280;-65
2024/02/15 03:26:39;;;;;;;11.73;6.60;;;-0.40;99.90;;;;;;4113787;28;20792;-64
2024/02/15 03:28:41;;;;;;;11.43;5.87;;;-0.40;99.90;;;;;;4100396;28;20305;-65
2024/02/15 03:30:43;;;;;;;11.80;6.13;;;-0.40;99.90;;;;;;4099727;28;20273;-65
2024/02/15 03:32:48;;;;;;;12.87;6.60;;;-0.40;99.90;;;;;;4112188;28;20599;-65
2024/02/15 03:34:49;;;;;;;9.80;6.37;;;-0.40;99.90;;;;;;4113267;28;20804;-65
2024/02/15 03:36:53;;;;;;;12.40;6.63;;;-0.50;99.90;;;;;;4113192;28;20292;-64
2024/02/15 03:38:55;;;;;;;14.73;7.53;;;-0.50;99.90;;;;;;4111563;28;20269;-64
2024/02/15 03:40:57;;;;;;;14.00;6.97;;;-0.60;99.90;;;;;;4113009;28;20344;-66
2024/02/15 03:42:59;;;;;;;14.47;6.23;;;-0.60;99.90;;;;;;4112606;28;20269;-66
2024/02/15 03:45:00;;;;;;;11.23;6.80;;;-0.60;99.90;;;;;;4105515;28;20277;-65
2024/02/15 03:47:01;;;;;;;13.13;7.40;;;-0.70;99.90;;;;;;4096278;28;20332;-65
2024/02/15 03:49:03;;;;;;;13.10;6.67;;;-0.70;99.90;;;;;;4097342;28;20375;-63
2024/02/15 03:51:06;;;;;;;13.47;6.73;;;-0.80;99.90;;;;;;4096452;29;20274;-63
2024/02/15 03:53:13;;;;;;;12.33;6.43;;;-0.90;99.90;;;;;;4097478;28;20336;-62
2024/02/15 03:55:15;;;;;;;16.63;6.57;;;-0.90;99.90;;;;;;4097257;28;20288;-62
2024/02/15 03:57:17;;;;;;;11.37;6.20;;;-0.90;99.90;;;;;;4107475;28;20277;-63
2024/02/15 03:59:32;;;;;;;13.07;6.67;;;-0.90;99.90;;;;;;4096275;29;20336;-65
2024/02/15 04:01:34;;;;;;;12.13;6.23;;;-0.90;99.90;;;;;;4097976;28;20340;-62
2024/02/15 04:03:35;;;;;;;9.43;6.53;;;-0.90;99.90;;;;;;4096114;29;20265;-63
2024/02/15 04:05:36;;;;;;;12.57;6.73;;;-1.00;99.90;;;;;;4097697;29;20277;-62
2024/02/15 04:07:38;;;;;;;12.80;6.33;;;-1.00;99.90;;;;;;4096443;29;20646;-62
2024/02/15 04:09:39;;;;;;;13.93;7.17;;;-0.90;99.90;;;;;;4097106;29;20836;-62
2024/02/15 04:11:40;;;;;;;10.53;6.33;;;-0.90;99.90;;;;;;4100580;28;20278;-62
2024/02/15 04:13:42;;;;;;;14.40;7.20;;;-0.90;99.90;;;;;;4096784;28;20313;-63
2024/02/15 04:15:44;;;;;;;11.80;6.20;;;-0.90;99.90;;;;;;4108234;28;20281;-65
2024/02/15 04:17:45;;;;;;;17.47;6.13;;;-0.90;99.90;;;;;;4112384;28;20285;-61
2024/02/15 04:19:47;;;;;;;11.67;5.97;;;-1.00;99.90;;;;;;4112112;28;20377;-64
2024/02/15 04:21:48;;;;;;;11.30;5.60;;;-0.90;99.90;;;;;;4112100;28;20268;-60
2024/02/15 04:23:51;;;;;;;11.10;6.83;;;-1.00;99.90;;;;;;4112921;28;20269;-65
2024/02/15 04:25:54;;;;;;;11.53;6.37;;;-0.90;99.90;;;;;;4111550;28;20757;-63
2024/02/15 04:27:57;;;;;;;15.27;6.30;;;-1.00;99.90;;;;;;4113085;28;20331;-62
2024/02/15 04:29:59;;;;;;;12.47;6.40;;;-0.90;99.90;;;;;;4111142;28;20374;-63
2024/02/15 04:32:00;;;;;;;12.50;7.20;;;-1.00;99.90;;;;;;4104820;28;20771;-67
2024/02/15 04:34:01;;;;;;;13.67;6.77;;;-1.00;99.90;;;;;;4111551;28;20439;-62
2024/02/15 04:36:06;;;;;;;16.77;7.33;;;-1.00;99.90;;;;;;4116557;28;20606;-61
2024/02/15 04:38:08;;;;;;;11.60;6.13;;;-1.00;99.90;;;;;;4115176;28;20265;-63
2024/02/15 04:40:09;;;;;;;12.00;7.20;;;-1.00;99.90;;;;;;4114351;28;20285;-61
2024/02/15 04:42:11;;;;;;;12.10;5.93;;;-1.00;99.90;;;;;;4114916;28;20260;-59
2024/02/15 04:44:12;;;;;;;10.30;5.93;;;-1.00;99.90;;;;;;4109427;28;20269;-61
2024/02/15 04:46:14;;;;;;;13.10;7.73;;;-1.00;99.90;;;;;;4113764;28;20740;-61
2024/02/15 04:48:15;;;;;;;12.43;6.33;;;-1.00;99.90;;;;;;4115549;28;20285;-63
2024/02/15 04:50:18;;;;;;;11.07;5.93;;;-1.00;99.90;;;;;;4115149;28;20351;-61
2024/02/15 04:52:23;;;;;;;14.90;6.80;;;-1.00;99.90;;;;;;4113683;28;20351;-59
2024/02/15 04:54:26;;;;;;;10.30;5.73;;;-1.00;99.90;;;;;;4104893;28;20753;-61
2024/02/15 04:56:27;;;;;;;15.77;5.83;;;-1.00;99.90;;;;;;4100543;28;20339;-61
2024/02/15 04:58:28;;;;;;;12.57;6.03;;;-1.00;99.90;;;;;;4099715;28;20332;-62
2024/02/15 05:00:30;;;;;;;13.43;6.37;;;-1.00;99.90;;;;;;4098375;29;20635;-62
2024/02/15 05:02:31;;;;;;;10.77;5.57;;;-1.00;99.90;;;;;;4099620;29;20698;-61
2024/02/15 05:04:36;;;;;;;15.33;6.43;;;-1.00;99.90;;;;;;4098722;28;20270;-61
2024/02/15 05:06:38;;;;;;;11.20;5.53;;;-1.00;99.90;;;;;;4100179;29;20273;-61
2024/02/15 05:08:42;;;;;;;12.50;6.33;;;-1.00;99.90;;;;;;4098435;28;20529;-57
2024/02/15 05:10:45;;;;;;;11.50;5.83;;;-1.00;99.90;;;;;;4099909;28;20750;-62
2024/02/15 05:12:49;;;;;;;8.67;5.40;;;-1.00;99.90;;;;;;4098481;28;20269;-62
2024/02/15 05:14:51;;;;;;;12.67;5.30;;;-0.90;99.90;;;;;;4099425;28;20320;-62
2024/02/15 05:16:53;;;;;;;13.50;6.23;;;-0.90;99.90;;;;;;4100309;28;20274;-61
2024/02/15 05:18:54;;;;;;;11.73;5.50;;;-0.90;99.90;;;;;;4099246;28;20278;-61
2024/02/15 05:20:56;;;;;;;12.00;6.27;;;-0.90;99.90;;;;;;4102612;28;20261;-61
2024/02/15 05:22:57;;;;;;;10.97;6.13;;;-0.80;99.90;;;;;;4114815;28;20808;-61
2024/02/15 05:24:58;;;;;;;12.90;6.23;;;-0.90;99.90;;;;;;4113177;28;20315;-61
2024/02/15 05:27:01;;;;;;;17.07;6.80;;;-0.80;99.90;;;;;;4114790;28;20272;-60
2024/02/15 05:29:02;;;;;;;10.10;6.00;;;-0.80;99.90;;;;;;4114622;28;20335;-60
2024/02/15 05:31:17;;;;;;;15.93;7.27;;;-0.80;99.90;;;;;;4105209;28;20274;-61
2024/02/15 05:33:18;;;;;;;11.47;6.47;;;-0.80;99.90;;;;;;4099875;28;20328;-58
2024/02/15 05:35:19;;;;;;;12.43;6.67;;;-0.80;99.90;;;;;;4099207;28;20700;-60
2024/02/15 05:37:21;;;;;;;16.97;7.17;;;-0.70;99.90;;;;;;4099352;29;20328;-59
2024/02/15 05:39:23;;;;;;;15.57;6.63;;;-0.80;99.90;;;;;;4097977;28;20282;-60
2024/02/15 05:41:24;;;;;;;16.20;8.00;;;-0.70;99.90;;;;;;4100260;28;20734;-57
2024/02/15 05:43:25;;;;;;;11.57;6.93;;;-0.50;99.90;;;;;;4098329;28;20277;-63
2024/02/15 05:45:29;;;;;;;18.27;8.30;;;-0.30;99.90;;;;;;4098153;28;20710;-61
2024/02/15 05:47:30;;;;;;;19.17;8.90;;;-0.10;99.90;;;;;;4097831;29;20306;-60
2024/02/15 05:49:33;;;;;;;12.20;6.60;;;0.10;99.90;;;;;;4099048;28;20343;-63
2024/02/15 05:51:34;;;;;;;11.70;7.30;;;0.40;99.90;;;;;;4112258;28;20684;-61
2024/02/15 05:53:36;;;;;;;39.33;17.50;;;0.60;99.90;;;;;;4107831;28;20336;-63
2024/02/15 05:55:40;;;;;;;21.23;10.00;;;0.70;99.90;;;;;;4098831;28;20308;-60
2024/02/15 05:57:43;;;;;;;20.50;8.77;;;0.90;99.90;;;;;;4098870;29;20325;-60
2024/02/15 05:59:44;;;;;;;17.10;8.40;;;0.90;99.90;;;;;;4098094;28;20277;-61
2024/02/15 06:01:48;;;;;;;17.33;8.83;;;1.20;99.90;;;;;;4099131;28;20345;-60
2024/02/15 06:03:49;;;;;;;18.33;9.57;;;1.40;99.90;;;;;;4097449;28;20320;-62
2024/02/15 06:05:50;;;;;;;24.27;9.90;;;1.40;99.90;;;;;;4098069;28;20829;-60
2024/02/15 06:07:51;;;;;;;17.83;9.00;;;1.50;99.90;;;;;;4097476;28;20328;-59
2024/02/15 06:09:53;;;;;;;23.10;10.43;;;1.60;99.90;;;;;;4096928;29;20667;-60
2024/02/15 06:11:55;;;;;;;23.83;8.80;;;2.10;99.90;;;;;;4098634;28;20258;-60
2024/02/15 06:13:56;;;;;;;17.27;8.23;;;2.30;99.90;;;;;;4097491;29;20310;-59
2024/02/15 06:15:58;;;;;;;20.33;8.07;;;2.60;99.90;;;;;;4098488;29;20295;-59
2024/02/15 06:17:59;;;;;;;15.40;8.07;;;2.60;99.90;;;;;;4096056;29;20706;-64
2024/02/15 06:20:00;;;;;;;12.67;6.50;;;2.40;99.90;;;;;;4098806;28;20411;-60
2024/02/15 06:22:02;;;;;;;12.67;7.70;;;2.40;99.90;;;;;;4097382;29;20265;-60
2024/02/15 06:24:03;;;;;;;12.53;7.57;;;2.60;99.90;;;;;;4098344;28;20731;-62
2024/02/15 06:26:05;;;;;;;15.40;6.87;;;2.80;99.90;;;;;;4106054;28;20276;-60
2024/02/15 06:28:13;;;;;;;11.83;7.10;;;3.10;99.90;;;;;;4098572;28;20282;-58
2024/02/15 06:39:56;;;;;;;10.17;6.07;;;5.20;99.90;;;;;;4100947;28;20090;-62
2024/02/15 06:41:58;;;;;;;8.67;4.97;;;5.40;99.90;;;;;;4103596;28;20109;-61
2024/02/15 06:43:59;;;;;;;11.07;5.67;;;5.70;99.90;;;;;;4094805;28;20039;-60
2024/02/15 06:46:01;;;;;;;13.23;5.80;;;5.80;99.90;;;;;;4096505;28;20047;-61
2024/02/15 06:48:02;;;;;;;10.57;5.30;;;6.10;99.90;;;;;;4098328;28;20046;-59
2024/02/15 06:50:04;;;;;;;9.20;4.80;;;6.20;99.90;;;;;;4102431;28;20546;-61
2024/02/15 06:52:09;;;;;;;11.47;4.43;;;6.50;99.90;;;;;;4102178;28;20027;-60
2024/02/15 06:54:11;;;;;;;8.50;4.87;;;6.50;99.90;;;;;;4106462;28;20050;-62
2024/02/15 06:56:13;;;;;;;10.80;5.60;;;6.70;99.90;;;;;;4083480;28;21136;-60
2024/02/15 06:58:42;;;;;;;9.10;4.77;;;6.40;99.90;;;;;;4031175;29;20982;-61
2024/02/15 07:01:26;;;;;;;11.80;4.37;;;6.70;99.90;;;;;;4032908;28;20098;-60
2024/02/15 07:04:33;;;;;;;8.47;4.77;;;6.70;99.90;;;;;;4042309;28;21068;-60
2024/02/15 07:06:51;;;;;;;9.57;5.10;;;6.40;99.90;;;;;;4033476;28;20039;-60
2024/02/15 07:08:56;;;;;;;8.87;5.47;;;6.40;99.90;;;;;;4040662;28;21087;-60
2024/02/15 07:17:36;;;;;;;12.97;6.27;;;6.40;99.90;;;;;;4033741;28;20184;-60
2024/02/15 07:26:12;;;;;;;7.63;3.92;;;7.80;99.90;;;;;;4126167;28;20109;-54
2024/02/15 07:28:13;;;;;;;8.87;5.77;;;7.90;99.90;;;;;;4126037;28;20162;-55
2024/02/15 07:30:15;;;;;;;9.17;4.30;;;8.00;99.90;;;;;;4122931;28;20038;-57
2024/02/15 07:32:17;;;;;;;8.63;4.43;;;8.20;99.90;;;;;;4128671;28;20140;-57
2024/02/15 07:34:19;;;;;;;9.20;5.20;;;8.50;99.90;;;;;;4129789;28;20038;-57
2024/02/15 07:36:23;;;;;;;7.57;4.37;;;8.80;99.70;;;;;;4128606;28;20100;-58
2024/02/15 07:38:25;;;;;;;9.97;5.33;;;8.70;99.20;;;;;;4129602;28;20081;-53
2024/02/15 07:40:29;;;;;;;10.73;5.40;;;9.00;99.40;;;;;;4127990;28;20042;-54
2024/02/15 07:42:30;;;;;;;10.73;5.93;;;9.20;98.80;;;;;;4128962;28;20099;-60
2024/02/15 07:44:32;;;;;;;13.00;6.17;;;9.40;98.70;;;;;;4128199;28;20046;-59
2024/02/15 07:46:34;;;;;;;11.70;5.60;;;9.70;97.90;;;;;;4129057;28;20042;-65
2024/02/15 07:48:35;;;;;;;12.03;6.30;;;9.50;97.50;;;;;;4128346;28;20010;-55
2024/02/15 07:50:37;;;;;;;10.93;6.43;;;9.70;97.90;;;;;;4129056;28;20453;-57
2024/02/15 07:52:38;;;;;;;44.63;8.87;;;9.40;97.40;;;;;;4128731;28;20042;-55
2024/02/15 07:54:39;;;;;;;10.87;4.90;;;9.40;97.70;;;;;;4128454;28;20482;-62
2024/02/15 07:56:41;;;;;;;12.17;5.10;;;9.00;97.30;;;;;;4128488;28;20030;-60
2024/02/15 07:58:46;;;;;;;10.10;5.67;;;8.80;97.60;;;;;;4139134;28;20034;-62
2024/02/15 08:00:48;;;;;;;9.77;5.30;;;9.00;97.90;;;;;;4129300;28;20453;-57
2024/02/15 08:02:49;;;;;;;8.77;4.23;;;9.30;97.90;;;;;;4127537;28;20180;-58
2024/02/15 08:04:51;;;;;;;11.40;4.33;;;9.10;97.10;;;;;;4129049;28;20051;-60
2024/02/15 08:06:53;;;;;;;9.97;5.00;;;8.90;97.30;;;;;;4126376;28;20022;-59
2024/02/15 08:08:54;;;;;;;10.20;5.20;;;8.90;97.80;;;;;;4128837;28;20050;-59
2024/02/15 08:10:56;;;;;;;5.53;3.60;;;9.20;97.60;;;;;;4127905;28;20101;-58
2024/02/15 08:12:58;;;;;;;7.43;3.57;;;9.20;97.40;;;;;;4128620;28;20081;-56
2024/02/15 08:14:59;;;;;;;8.87;3.70;;;9.60;97.40;;;;;;4127935;28;20050;-62
2024/02/15 08:17:00;;;;;;;5.57;3.50;;;9.60;96.50;;;;;;4128458;28;20142;-58
2024/02/15 08:19:03;;;;;;;14.50;3.87;;;9.50;96.70;;;;;;4128129;28;20084;-59
2024/02/15 08:21:05;;;;;;;7.13;3.73;;;9.70;96.90;;;;;;4128870;28;20039;-58
2024/02/15 08:23:06;;;;;;;5.73;3.90;;;9.40;96.20;;;;;;4127940;28;20038;-59
2024/02/15 08:25:12;;;;;;;7.53;3.43;;;9.10;96.60;;;;;;4128008;28;20077;-60
2024/02/15 08:27:16;;;;;;;6.30;3.93;;;9.20;97.00;;;;;;4128294;28;20046;-59
2024/02/15 08:29:17;;;;;;;7.67;3.70;;;9.00;96.80;;;;;;4127949;28;20033;-56
2024/02/15 08:31:19;;;;;;;7.00;3.70;;;9.30;96.80;;;;;;4128623;28;20100;-52
2024/02/15 08:33:20;;;;;;;9.43;4.60;;;9.10;96.60;;;;;;4127919;28;20031;-58
2024/02/15 08:35:22;;;;;;;8.90;4.50;;;9.40;96.80;;;;;;4128147;28;20026;-61
2024/02/15 08:37:23;;;;;;;5.90;3.90;;;10.00;96.50;;;;;;4127722;28;20437;-58
2024/02/15 08:39:24;;;;;;;6.27;4.30;;;10.50;96.10;;;;;;4129059;28;20084;-61
2024/02/15 08:41:26;;;;;;;7.77;4.03;;;11.00;95.50;;;;;;4128820;28;20046;-60
2024/02/15 08:43:27;;;;;;;11.07;4.37;;;11.50;95.10;;;;;;4128666;28;20541;-60
2024/02/15 08:45:29;;;;;;;8.83;4.47;;;11.70;94.50;;;;;;4127578;28;20483;-58
2024/02/15 08:47:30;;;;;;;8.93;4.30;;;11.60;94.60;;;;;;4128655;28;20463;-58
2024/02/15 08:49:31;;;;;;;7.37;4.57;;;11.80;94.40;;;;;;4127340;28;20101;-58
2024/02/15 08:51:32;;;;;;;12.80;5.30;;;12.00;94.00;;;;;;4128728;28;20076;-59
2024/02/15 08:53:36;;;;;;;10.33;5.50;;;11.90;93.90;;;;;;4127293;28;20407;-58
2024/02/15 08:55:37;;;;;;;8.53;5.37;;;11.50;93.90;;;;;;4128557;28;20030;-61
2024/02/15 08:57:40;;;;;;;10.37;4.43;;;11.80;94.10;;;;;;4128362;28;20041;-58
2024/02/15 08:59:42;;;;;;;8.67;4.53;;;12.00;94.10;;;;;;4128172;28;20080;-58
2024/02/15 09:01:45;;;;;;;8.57;4.57;;;12.40;93.80;;;;;;4128101;28;20023;-57
2024/02/15 09:03:46;;;;;;;6.87;3.87;;;12.40;93.40;;;;;;4127408;28;20054;-58
2024/02/15 09:05:48;;;;;;;8.90;4.80;;;12.10;93.40;;;;;;4124216;28;20042;-65
2024/02/15 09:07:50;;;;;;;11.00;4.17;;;12.30;93.60;;;;;;4126554;28;20482;-59
2024/02/15 09:09:52;;;;;;;9.10;4.63;;;12.40;93.10;;;;;;4128300;28;20121;-60
2024/02/15 09:11:53;;;;;;;7.37;4.40;;;12.50;92.80;;;;;;4126950;28;20120;-61
2024/02/15 09:13:54;;;;;;;7.37;4.40;;;12.20;93.00;;;;;;4128554;28;20042;-56
2024/02/15 09:15:56;;;;;;;10.67;4.30;;;12.10;93.20;;;;;;4126373;28;20089;-60
2024/02/15 09:17:57;;;;;;;9.97;5.93;;;12.20;93.00;;;;;;4128016;28;20093;-57
2024/02/15 09:19:59;;;;;;;10.03;4.30;;;12.00;92.90;;;;;;4127086;28;20081;-59
2024/02/15 09:22:00;;;;;;;5.23;3.57;;;12.10;93.00;;;;;;4129704;28;20065;-61
2024/02/15 09:24:02;;;;;;;4.70;3.30;;;11.60;92.60;;;;;;4128993;28;20315;-55
2024/02/15 09:26:03;;;;;;;7.40;3.90;;;11.60;92.90;;;;;;4131254;28;20094;-55
2024/02/15 09:28:05;;;;;;;8.97;4.37;;;11.60;92.90;;;;;;4130204;28;20073;-61
2024/02/15 09:30:09;;;;;;;7.30;3.50;;;11.70;92.80;;;;;;4129730;28;20046;-57
2024/02/15 09:32:10;;;;;;;9.03;4.33;;;11.50;92.50;;;;;;4129410;28;20482;-61
2024/02/15 09:34:13;;;;;;;5.37;3.63;;;11.50;92.70;;;;;;4126475;28;20089;-59
2024/02/15 09:36:16;;;;;;;4.37;2.73;;;11.60;92.80;;;;;;4129174;28;20368;-61
2024/02/15 09:38:19;;;;;;;6.33;3.60;;;11.90;92.20;;;;;;4129173;28;20496;-55
2024/02/15 09:40:40;;;;;;;6.17;3.47;;;11.60;91.90;;;;;;4130536;28;20022;-54
2024/02/15 09:42:44;;;;;;;4.83;3.10;;;11.40;91.10;;;;;;4129592;28;20038;-55
2024/02/15 09:44:47;;;;;;;6.37;3.23;;;11.20;92.20;;;;;;4129978;28;20050;-65
2024/02/15 09:46:55;;;;;;;7.93;3.63;;;11.10;92.20;;;;;;4130327;28;20043;-58
2024/02/15 09:49:36;;;;;;;5.63;3.97;;;11.00;92.40;;;;;;4131082;28;20034;-62
2024/02/15 09:51:58;;;;;;;11.57;3.70;;;10.70;91.80;;;;;;4129874;28;20093;-60
2024/02/15 09:54:00;;;;;;;4.03;3.20;;;10.50;92.70;;;;;;4113440;28;20046;-57
2024/02/15 09:56:04;;;;;;;8.63;3.10;;;10.40;92.70;;;;;;4120213;28;20046;-57
2024/02/15 09:58:25;;;;;;;5.53;3.17;;;10.40;92.80;;;;;;4130151;28;20042;-62
2024/02/15 10:00:26;;;;;;;5.63;2.77;;;10.50;91.90;;;;;;4128911;28;20100;-52
2024/02/15 10:02:28;;;;;;;4.13;2.30;;;10.70;92.50;;;;;;4129811;28;20454;-57
2024/02/15 10:04:30;;;;;;;3.10;2.30;;;10.90;92.20;;;;;;4129403;28;20100;-56
2024/02/15 10:06:31;;;;;;;2.97;2.27;;;10.80;91.90;;;;;;4129804;28;20445;-60
2024/02/15 10:08:53;;;;;;;4.37;2.13;;;10.70;92.00;;;;;;4128947;28;20038;-58
2024/02/15 10:11:08;;;;;;;4.90;2.70;;;10.90;90.80;;;;;;4121395;28;20680;-60
2024/02/15 10:13:13;;;;;;;5.03;2.77;;;10.80;90.50;;;;;;4129619;28;20096;-59
2024/02/15 10:15:51;;;;;;;6.27;4.00;;;10.20;91.40;;;;;;4130073;28;20023;-58
2024/02/15 10:17:58;;;;;;;4.90;2.87;;;10.00;91.70;;;;;;4130453;28;20101;-58
2024/02/15 10:20:26;;;;;;;4.77;2.60;;;10.00;92.10;;;;;;4129289;28;20116;-61
2024/02/15 10:22:27;;;;;;;5.83;3.03;;;9.70;91.60;;;;;;4130540;28;20076;-59
2024/02/15 10:24:29;;;;;;;4.83;2.73;;;9.50;92.20;;;;;;4129207;28;20050;-54
2024/02/15 10:26:30;;;;;;;6.03;2.50;;;9.50;92.40;;;;;;4130697;28;20371;-60
2024/02/15 10:28:31;;;;;;;3.60;2.10;;;9.60;92.00;;;;;;4130034;28;20396;-55
2024/02/15 10:30:34;;;;;;;4.43;2.80;;;9.60;92.20;;;;;;4129888;28;20090;-60
2024/02/15 10:32:36;;;;;;;7.20;2.83;;;9.60;91.90;;;;;;4129456;28;20363;-58
2024/02/15 10:34:47;;;;;;;7.47;2.83;;;9.70;92.20;;;;;;4127470;28;20018;-57
2024/02/15 10:36:49;;;;;;;4.77;2.50;;;9.90;91.80;;;;;;4128196;28;20170;-59
2024/02/15 10:38:51;;;;;;;4.30;2.73;;;9.90;91.60;;;;;;4129283;28;20109;-60
2024/02/15 10:41:04;;;;;;;6.80;3.37;;;10.00;92.00;;;;;;4129725;28;20050;-60
2024/02/15 10:43:06;;;;;;;5.60;3.10;;;10.00;91.40;;;;;;4129512;28;20035;-57
2024/02/15 10:45:10;;;;;;;12.80;4.00;;;9.90;92.10;;;;;;4129965;28;20108;-54
2024/02/15 10:47:11;;;;;;;5.37;2.70;;;9.80;92.20;;;;;;4128832;28;20050;-57
2024/02/15 10:49:14;;;;;;;4.57;2.70;;;9.70;91.90;;;;;;4130439;28;20115;-52
2024/02/15 10:51:17;;;;;;;10.17;4.03;;;9.60;91.80;;;;;;4129045;28;20446;-61
2024/02/15 10:53:20;;;;;;;3.87;2.57;;;9.60;92.20;;;;;;4128886;28;20034;-59
2024/02/15 10:55:59;;;;;;;5.17;2.23;;;9.70;92.20;;;;;;4128953;28;20088;-59
2024/02/15 10:58:04;;;;;;;2.93;1.73;;;9.70;91.10;;;;;;4130577;28;20576;-58
2024/02/15 11:00:10;;;;;;;3.63;1.80;;;9.70;91.50;;;;;;4128881;28;20457;-57
2024/02/15 11:02:32;;;;;;;3.57;1.33;;;9.70;91.50;;;;;;4130174;28;20093;-59
2024/02/15 11:04:35;;;;;;;6.70;2.13;;;9.60;90.50;;;;;;4128481;28;20030;-61